Time;durP1;ratioP1;P1;durP2;ratioP2;P2;SDS_P1;SDS_P2;PMS_P1;PMS_P2;Temp;Humidity;BMP_temperature;BMP_pressure;BME280_temperature;BME280_humidity;BME280_pressure;Samples;Min_cycle;Max_cycle;Signal;HPM_P1;HPM_P2
2021/10/27 00:02:29;;;;;;;;;8.25;6.00;;;;;21.80;49.08;101642.47;6165099;22;45341;-74
2021/10/27 00:04:55;;;;;;;;;7.00;7.00;;;;;21.80;49.16;101644.25;6167443;22;45444;-74
2021/10/27 00:07:32;;;;;;;;;7.50;6.75;;;;;21.86;48.84;101654.75;6166248;22;47051;-74
2021/10/27 00:10:05;;;;;;;;;4.00;4.00;;;;;21.85;48.41;101651.22;6192182;22;45399;-76
2021/10/27 00:12:33;;;;;;;;;6.50;6.50;;;;;21.77;48.74;101636.38;6190348;22;45359;-76
2021/10/27 00:14:59;;;;;;;;;6.00;5.00;;;;;21.80;48.51;101646.91;6191439;22;45616;-76
2021/10/27 00:17:30;;;;;;;;;5.75;5.75;;;;;21.82;48.76;101647.78;6216847;22;45953;-76
2021/10/27 00:20:03;;;;;;;;;6.00;5.25;;;;;21.84;49.04;101654.78;6215945;22;45375;-76
2021/10/27 00:22:28;;;;;;;;;4.25;4.25;;;;;21.83;48.66;101645.06;6193312;22;45249;-76
2021/10/27 00:24:54;;;;;;;;;6.00;6.00;;;;;21.82;49.09;101648.66;6165676;22;45852;-76
2021/10/27 00:27:19;;;;;;;;;6.00;5.00;;;;;21.82;49.17;101653.97;6216843;22;50555;-76
2021/10/27 00:29:44;;;;;;;;;7.50;6.00;;;;;21.84;48.77;101660.09;6216253;22;45278;-76
2021/10/27 00:32:10;;;;;;;;;7.00;6.00;;;;;21.82;48.52;101656.63;6165331;22;58318;-76
2021/10/27 00:34:35;;;;;;;;;4.00;3.25;;;;;21.83;48.78;101661.03;6216475;22;48074;-76
2021/10/27 00:37:01;;;;;;;;;5.00;3.75;;;;;21.85;48.77;101667.16;6191565;22;46355;-76
2021/10/27 00:39:27;;;;;;;;;8.00;5.25;;;;;21.87;48.79;101665.34;6165787;22;45368;-76
2021/10/27 00:41:53;;;;;;;;;8.75;6.00;;;;;21.87;48.84;101657.38;6216405;22;45370;-76
2021/10/27 00:44:25;;;;;;;;;5.25;5.00;;;;;21.90;48.29;101662.63;6191465;22;45347;-76
2021/10/27 00:47:16;;;;;;;;;6.50;6.50;;;;;21.90;48.54;101659.97;6191622;22;45410;-76
2021/10/27 00:49:43;;;;;;;;;6.00;5.00;;;;;21.91;48.45;101660.84;6169221;22;45363;-76
2021/10/27 00:52:10;;;;;;;;;5.75;5.00;;;;;21.91;47.93;101661.72;6166446;22;45202;-76
2021/10/27 00:54:36;;;;;;;;;4.25;4.25;;;;;21.91;48.31;101661.72;6191446;22;45368;-76
2021/10/27 00:57:02;;;;;;;;;5.75;5.50;;;;;21.90;48.58;101662.63;6191129;22;45354;-76
2021/10/27 00:59:27;;;;;;;;;7.00;5.00;;;;;21.92;48.71;101671.44;6166113;22;45320;-76
2021/10/27 01:01:53;;;;;;;;;5.25;4.00;;;;;21.89;48.22;101665.31;6216831;22;45262;-76
2021/10/27 01:04:20;;;;;;;;;4.50;4.00;;;;;21.89;48.45;101666.22;6190063;22;64921;-76
2021/10/27 01:06:46;;;;;;;;;5.00;5.00;;;;;21.89;48.52;101666.22;6191707;22;47572;-74
2021/10/27 01:09:11;;;;;;;;;5.75;5.75;;;;;21.91;48.11;101666.16;6215868;22;45538;-76
2021/10/27 01:11:37;;;;;;;;;4.50;4.50;;;;;21.92;48.04;101663.47;6166695;22;45428;-76
2021/10/27 01:14:06;;;;;;;;;5.25;5.25;;;;;21.90;47.77;101659.09;6196484;22;45155;-76
2021/10/27 01:16:32;;;;;;;;;6.75;4.25;;;;;21.92;48.06;101659.94;6195980;22;46181;-76
2021/10/27 01:18:57;;;;;;;;;7.00;5.00;;;;;21.91;47.72;101655.53;6170898;22;45470;-76
2021/10/27 01:21:24;;;;;;;;;5.75;5.50;;;;;21.92;48.11;101657.28;6196049;22;47909;-76
2021/10/27 01:23:49;;;;;;;;;6.75;5.00;;;;;21.90;48.14;101649.34;6171037;22;45427;-76
2021/10/27 01:26:14;;;;;;;;;5.25;5.00;;;;;21.91;48.29;101656.41;6195030;22;46907;-76
2021/10/27 01:28:46;;;;;;;;;4.00;4.00;;;;;21.88;48.11;101655.59;6195445;22;59321;-76
2021/10/27 01:31:12;;;;;;;;;5.75;5.00;;;;;21.84;48.12;101649.47;6171120;22;45371;-76
2021/10/27 01:33:38;;;;;;;;;6.25;6.00;;;;;21.89;47.63;101647.59;6196677;22;45359;-76
2021/10/27 01:36:04;;;;;;;;;6.25;6.00;;;;;21.85;47.68;101645.03;6196045;22;45355;-76
2021/10/27 01:38:30;;;;;;;;;7.00;5.75;;;;;21.78;48.29;101644.28;6196037;22;45235;-76
2021/10/27 01:40:56;;;;;;;;;4.00;4.00;;;;;21.78;48.07;101644.28;6195460;22;45438;-75
2021/10/27 01:43:21;;;;;;;;;5.00;5.00;;;;;21.78;47.63;101636.31;6196451;22;45130;-76
2021/10/27 01:45:46;;;;;;;;;6.25;5.75;;;;;21.75;47.73;101640.84;6220842;22;46953;-76
2021/10/27 01:48:12;;;;;;;;;9.00;6.00;;;;;21.73;48.06;101640.88;6195884;22;45271;-76
2021/10/27 01:50:37;;;;;;;;;6.75;6.75;;;;;21.74;47.74;101645.28;6196004;22;45450;-76
2021/10/27 01:53:03;;;;;;;;;7.75;6.50;;;;;21.71;47.89;101629.41;6196369;22;45165;-76
2021/10/27 01:55:28;;;;;;;;;7.25;7.00;;;;;21.70;47.73;101635.63;6169809;22;53016;-76
2021/10/27 01:57:54;;;;;;;;;7.25;7.00;;;;;21.67;48.14;101631.25;6195790;22;45280;-76
2021/10/27 02:00:19;;;;;;;;;8.00;6.50;;;;;21.65;48.00;101629.56;6170894;22;45324;-76
2021/10/27 02:02:45;;;;;;;;;7.50;6.00;;;;;21.64;47.88;101625.16;6170797;22;45462;-76
2021/10/27 02:05:11;;;;;;;;;7.00;6.25;;;;;21.63;48.13;101624.28;6196209;22;45427;-76
2021/10/27 02:07:37;;;;;;;;;8.75;6.25;;;;;21.63;47.75;101618.06;6220966;22;45188;-76
2021/10/27 02:10:05;;;;;;;;;7.75;5.50;;;;;21.60;47.90;101619.00;6195258;22;45411;-76
2021/10/27 02:12:31;;;;;;;;;6.50;6.50;;;;;21.60;47.90;101623.47;6195739;22;45564;-76
2021/10/27 02:14:56;;;;;;;;;6.75;6.75;;;;;21.56;48.18;101622.66;6170674;22;47017;-76
2021/10/27 02:17:22;;;;;;;;;8.50;6.50;;;;;21.53;48.10;101617.41;6221339;22;45276;-76
2021/10/27 02:19:47;;;;;;;;;8.75;8.50;;;;;21.51;47.96;101613.91;6170354;22;45179;-76
2021/10/27 02:22:12;;;;;;;;;11.00;7.75;;;;;21.48;48.21;101624.63;6170341;22;51498;-76
2021/10/27 02:24:38;;;;;;;;;9.50;7.50;;;;;21.43;48.05;101614.06;6195590;22;46258;-76
2021/10/27 02:27:04;;;;;;;;;9.00;9.00;;;;;21.39;48.19;101609.75;6195328;22;45206;-76
2021/10/27 02:29:29;;;;;;;;;10.25;9.50;;;;;21.36;48.27;101609.78;6194674;22;45240;-76
2021/10/27 02:31:55;;;;;;;;;8.50;8.25;;;;;21.36;48.56;101609.78;6195872;22;45687;-76
2021/10/27 02:34:20;;;;;;;;;7.25;7.25;;;;;21.36;48.69;101620.41;6170063;22;47650;-76
2021/10/27 02:36:46;;;;;;;;;6.25;6.25;;;;;21.39;48.55;101616.84;6170502;22;45298;-76
2021/10/27 02:39:11;;;;;;;;;7.25;7.00;;;;;21.39;48.44;101628.34;6194477;22;57690;-76
2021/10/27 02:41:36;;;;;;;;;9.00;9.00;;;;;21.38;48.33;101617.75;6194924;22;55029;-76
2021/10/27 02:44:02;;;;;;;;;8.00;8.00;;;;;21.36;48.07;101623.06;6245646;22;51871;-76
2021/10/27 02:46:27;;;;;;;;;9.50;8.00;;;;;21.33;47.98;101622.28;6220639;22;45252;-76
2021/10/27 02:48:53;;;;;;;;;10.25;8.75;;;;;21.28;48.13;101621.50;6194781;22;51286;-76
2021/10/27 02:51:18;;;;;;;;;8.00;7.75;;;;;21.28;47.97;101621.50;6170019;22;51492;-76
2021/10/27 02:53:44;;;;;;;;;10.75;7.25;;;;;21.28;48.04;101624.16;6195064;22;46882;-76
2021/10/27 02:56:09;;;;;;;;;8.50;8.50;;;;;21.25;48.22;101614.44;6170216;22;45383;-76
2021/10/27 02:58:34;;;;;;;;;9.25;7.50;;;;;21.25;48.43;101618.88;6171216;22;45265;-76
2021/10/27 03:01:00;;;;;;;;;11.00;10.00;;;;;21.24;48.81;101628.63;6196443;22;45531;-77
2021/10/27 03:03:25;;;;;;;;;11.00;8.00;;;;;21.25;48.23;101618.88;6195960;22;46947;-77
2021/10/27 03:05:51;;;;;;;;;8.50;8.50;;;;;21.24;48.47;101618.00;6169827;22;58352;-77
2021/10/27 03:08:16;;;;;;;;;9.50;8.00;;;;;21.18;48.85;101616.34;6170745;22;45633;-77
2021/10/27 03:10:42;;;;;;;;;12.00;9.75;;;;;21.18;48.43;101616.34;6169717;22;45522;-77
2021/10/27 03:13:07;;;;;;;;;7.25;7.25;;;;;21.23;48.56;101615.38;6170122;22;46983;-77
2021/10/27 03:15:32;;;;;;;;;8.25;6.50;;;;;21.22;48.25;101614.50;6170628;22;45457;-77
2021/10/27 03:17:59;;;;;;;;;9.00;7.00;;;;;21.20;48.69;101611.03;6169996;22;50697;-77
2021/10/27 03:20:24;;;;;;;;;9.50;8.50;;;;;21.20;48.56;101612.78;6195580;22;45375;-77
2021/10/27 03:22:50;;;;;;;;;7.25;7.25;;;;;21.19;48.56;101611.91;6195587;22;46215;-77
2021/10/27 03:25:15;;;;;;;;;9.25;8.75;;;;;21.12;48.37;101605.00;6169171;22;59134;-77
2021/10/27 03:27:40;;;;;;;;;10.75;8.00;;;;;21.13;48.54;101604.09;6195206;22;45291;-77
2021/10/27 03:30:06;;;;;;;;;9.25;8.75;;;;;21.13;48.48;101601.44;6195103;22;52313;-77
2021/10/27 03:32:32;;;;;;;;;7.75;7.25;;;;;21.11;48.29;101595.25;6220922;22;46209;-77
2021/10/27 03:34:57;;;;;;;;;8.75;8.50;;;;;21.12;48.56;101597.03;6195724;22;45209;-77
2021/10/27 03:37:23;;;;;;;;;9.75;8.00;;;;;21.06;49.04;101584.75;6172742;22;45407;-77
2021/10/27 03:39:48;;;;;;;;;9.00;8.25;;;;;21.13;48.83;101598.78;6219592;22;45266;-77
2021/10/27 03:42:13;;;;;;;;;7.25;7.00;;;;;21.13;48.56;101596.13;6247142;22;60748;-77
2021/10/27 03:44:39;;;;;;;;;9.50;8.25;;;;;21.07;48.15;101585.63;6247434;22;47721;-77
2021/10/27 03:47:04;;;;;;;;;6.50;6.50;;;;;21.09;48.98;101595.28;6248034;22;45284;-77
2021/10/27 03:49:30;;;;;;;;;9.00;8.00;;;;;21.09;48.90;101597.06;6247677;22;45370;-77
2021/10/27 03:51:55;;;;;;;;;9.25;8.50;;;;;21.10;48.53;101606.78;6220113;22;56078;-77
2021/10/27 03:54:20;;;;;;;;;9.00;8.50;;;;;21.10;48.46;101599.69;6247874;22;45232;-77
2021/10/27 03:56:46;;;;;;;;;9.75;9.00;;;;;21.08;48.93;101606.81;6195253;22;45160;-77
2021/10/27 03:59:12;;;;;;;;;10.00;10.00;;;;;21.07;48.23;101609.50;6170499;22;45194;-76
2021/10/27 04:01:37;;;;;;;;;10.50;9.00;;;;;21.00;47.94;101613.19;6169935;22;46644;-78
2021/10/27 04:04:03;;;;;;;;;13.00;9.50;;;;;20.96;48.64;101608.84;6195752;22;45212;-79
2021/10/27 04:06:28;;;;;;;;;15.25;10.25;;;;;21.04;49.11;101614.88;6194999;22;45400;-76
2021/10/27 04:08:54;;;;;;;;;9.50;7.75;;;;;21.10;48.56;101612.09;6169575;22;45436;-75
2021/10/27 04:11:19;;;;;;;;;13.25;10.25;;;;;21.12;48.19;101605.88;6195384;22;45181;-74
2021/10/27 04:13:45;;;;;;;;;10.50;8.75;;;;;21.17;48.09;101597.78;6218948;22;58398;-76
2021/10/27 04:16:10;;;;;;;;;12.50;8.00;;;;;21.21;48.18;101599.50;6195458;22;45292;-74
2021/10/27 04:18:35;;;;;;;;;8.75;8.25;;;;;21.21;48.16;101596.84;6169840;22;45495;-74
2021/10/27 04:21:01;;;;;;;;;9.00;7.75;;;;;21.19;48.00;101601.28;6194890;22;47054;-74
2021/10/27 04:23:27;;;;;;;;;12.25;9.25;;;;;21.18;48.34;101602.19;6219928;22;45470;-74
2021/10/27 04:25:52;;;;;;;;;20.50;15.25;;;;;21.18;48.91;101597.75;6169470;22;45237;-78
2021/10/27 04:28:17;;;;;;;;;18.25;14.00;;;;;21.18;49.96;101600.41;6194723;22;57708;-73
2021/10/27 04:30:43;;;;;;;;;18.75;15.00;;;;;21.23;50.40;101605.63;6219387;22;56321;-72
2021/10/27 04:33:16;;;;;;;;;21.50;19.50;;;;;21.26;50.42;101615.31;6195038;22;45324;-74
2021/10/27 04:35:41;;;;;;;;;17.25;17.00;;;;;21.25;50.76;101617.09;6220402;22;45252;-72
2021/10/27 04:38:07;;;;;;;;;18.00;15.25;;;;;21.26;51.31;101616.19;6220030;22;45483;-72
2021/10/27 04:40:32;;;;;;;;;16.75;15.25;;;;;21.27;51.05;101612.66;6219803;22;45373;-72
2021/10/27 04:42:58;;;;;;;;;17.00;15.50;;;;;21.27;51.17;101614.44;6220379;22;45382;-72
2021/10/27 04:45:25;;;;;;;;;19.25;18.00;;;;;21.26;51.40;101616.19;6194763;22;45194;-72
2021/10/27 04:47:51;;;;;;;;;19.50;17.75;;;;;21.24;51.50;101619.78;6194721;22;45214;-72
2021/10/27 04:50:16;;;;;;;;;16.00;15.50;;;;;21.22;51.41;101622.47;6194532;22;46730;-77
2021/10/27 04:52:41;;;;;;;;;11.00;10.75;;;;;21.21;50.63;101623.38;6196429;22;45193;-76
2021/10/27 04:55:07;;;;;;;;;16.00;11.75;;;;;21.22;50.64;101630.44;6196361;22;45994;-84
2021/10/27 04:57:35;;;;;;;;;10.75;10.50;;;;;21.21;50.49;101628.69;6170684;22;45124;-76
2021/10/27 05:00:01;;;;;;;;;14.00;11.50;;;;;21.19;50.78;101619.88;6171069;22;48252;-74
2021/10/27 05:02:26;;;;;;;;;13.75;11.25;;;;;21.22;50.41;101625.13;6196281;22;45348;-75
2021/10/27 05:04:52;;;;;;;;;171.25;164.75;;;;;21.22;51.55;101618.94;6221526;22;45263;-75
2021/10/27 05:07:18;;;;;;;;;32.25;30.25;;;;;21.30;50.16;101615.25;6170061;22;54053;-75
2021/10/27 05:09:43;;;;;;;;;30.50;28.25;;;;;21.35;49.58;101621.34;6170516;22;47709;-74
2021/10/27 05:12:12;;;;;;;;;24.25;21.25;;;;;21.36;49.91;101622.19;6194798;22;45287;-75
2021/10/27 05:14:41;;;;;;;;;24.75;23.00;;;;;21.37;50.69;101614.22;6221287;22;45257;-79
2021/10/27 05:17:11;;;;;;;;;20.50;19.75;;;;;21.48;50.79;101629.94;6197117;22;45300;-75
2021/10/27 05:19:40;;;;;;;;;21.25;19.00;;;;;21.59;50.41;101627.91;6197188;22;45283;-69
2021/10/27 05:22:06;;;;;;;;;19.50;17.25;;;;;21.67;51.31;101622.41;6248208;22;45197;-72
2021/10/27 05:24:31;;;;;;;;;21.25;17.25;;;;;21.74;50.89;101616.06;6221529;22;45415;-71
2021/10/27 05:26:57;;;;;;;;;16.75;13.25;;;;;21.80;49.45;101620.34;6221275;22;45358;-73
2021/10/27 05:29:22;;;;;;;;;16.00;15.50;;;;;21.73;50.10;101620.50;6196158;22;46245;-72
2021/10/27 05:31:48;;;;;;;;;16.50;13.75;;;;;21.74;50.17;101613.41;6196761;22;55845;-73
2021/10/27 05:34:13;;;;;;;;;16.00;13.25;;;;;21.81;50.88;101612.34;6196434;22;45435;-72
2021/10/27 05:36:39;;;;;;;;;17.50;15.00;;;;;21.93;51.57;101617.38;6221018;22;55480;-72
2021/10/27 05:39:04;;;;;;;;;20.50;13.75;;;;;22.04;53.77;101610.91;6170212;22;47625;-79
2021/10/27 05:41:31;;;;;;;;;15.75;10.50;;;;;22.16;54.07;101608.00;6196148;22;45220;-73
2021/10/27 05:43:57;;;;;;;;;15.25;11.50;;;;;22.23;52.81;101602.47;6170963;22;45175;-84
2021/10/27 05:46:22;;;;;;;;;14.00;12.50;;;;;22.28;52.61;101605.03;6170920;22;45183;-75
2021/10/27 05:48:56;;;;;;;;;12.50;11.25;;;;;22.33;52.45;101600.47;6195812;22;45341;-76
2021/10/27 05:51:36;;;;;;;;;15.75;13.50;;;;;22.38;51.59;101598.56;6199843;22;45267;-75
2021/10/27 05:56:46;;;;;;;;;16.50;10.25;;;;;22.45;51.38;101594.81;6203861;22;45240;-74
2021/10/27 05:59:11;;;;;;;;;14.00;12.75;;;;;22.49;52.21;101598.25;6170750;22;45855;-72
2021/10/27 06:01:37;;;;;;;;;11.25;11.00;;;;;22.52;52.13;101593.75;6248244;22;52068;-75
2021/10/27 06:04:02;;;;;;;;;13.75;11.00;;;;;22.56;51.98;101608.69;6221433;22;45757;-77
2021/10/27 06:06:27;;;;;;;;;14.00;12.75;;;;;22.57;51.89;101604.25;6247923;22;58577;-75
2021/10/27 06:08:55;;;;;;;;;17.75;13.50;;;;;22.58;51.64;101595.34;6220877;22;46231;-72
2021/10/27 06:11:20;;;;;;;;;19.00;12.00;;;;;22.62;52.39;101591.72;6195821;22;45339;-71
2021/10/27 06:13:46;;;;;;;;;16.00;10.00;;;;;22.63;52.00;101597.91;6220235;22;50114;-73
2021/10/27 06:16:13;;;;;;;;;16.00;12.50;;;;;22.63;51.53;101587.25;6196207;22;45429;-71
2021/10/27 06:18:39;;;;;;;;;18.50;15.75;;;;;22.61;50.84;101605.06;6221010;22;45308;-75
2021/10/27 06:21:04;;;;;;;;;15.00;12.00;;;;;22.54;50.32;101602.56;6170728;22;45740;-75
2021/10/27 06:23:30;;;;;;;;;14.00;13.50;;;;;22.47;50.09;101608.94;6195628;22;45393;-74
2021/10/27 06:25:55;;;;;;;;;16.50;13.50;;;;;22.38;49.73;101603.88;6169511;22;45482;-75
2021/10/27 06:28:24;;;;;;;;;15.50;10.50;;;;;22.29;48.65;101604.97;6195155;22;46603;-75
2021/10/27 06:30:57;;;;;;;;;15.25;11.50;;;;;22.21;48.40;101606.09;6171446;22;45505;-74
2021/10/27 06:35:57;;;;;;;;;11.25;11.25;;;;;22.05;47.95;101604.69;6221742;22;45238;-73
2021/10/27 06:38:31;;;;;;;;;11.75;10.75;;;;;21.97;47.90;101604.88;6196352;22;47969;-74
2021/10/27 06:49:20;;;;;;;;;16.00;11.00;;;;;21.74;47.47;101616.06;6193821;22;46595;-73
2021/10/27 06:51:45;;;;;;;;;18.25;13.00;;;;;21.69;47.03;101612.63;6220532;22;45417;-74
2021/10/27 06:54:11;;;;;;;;;13.00;12.50;;;;;21.66;47.51;101621.53;6169718;22;45269;-73
2021/10/27 06:56:36;;;;;;;;;12.25;11.50;;;;;21.65;46.95;101627.78;6195242;22;45363;-73
2021/10/27 06:59:07;;;;;;;;;13.25;12.00;;;;;21.61;46.96;101627.84;6169726;22;47073;-73
2021/10/27 07:06:51;;;;;;;;;14.25;12.25;;;;;21.53;46.83;101643.97;6199184;22;45201;-73
2021/10/27 07:17:25;;;;;;;;;13.00;12.25;;;;;21.50;46.72;101640.50;6197676;22;45134;-73
2021/10/27 07:19:51;;;;;;;;;12.75;11.50;;;;;21.48;46.73;101642.34;6247713;22;45359;-72
2021/10/27 07:22:16;;;;;;;;;16.50;13.25;;;;;21.44;46.22;101641.50;6195476;22;45389;-72
2021/10/27 07:24:42;;;;;;;;;12.50;12.50;;;;;21.40;46.56;101645.16;6218965;22;45251;-72
2021/10/27 07:27:10;;;;;;;;;11.00;10.75;;;;;21.37;46.46;101648.75;6194579;22;45441;-72
2021/10/27 07:29:35;;;;;;;;;15.50;12.50;;;;;21.34;46.16;101654.09;6194618;22;47812;-72
2021/10/27 07:32:03;;;;;;;;;11.75;11.00;;;;;21.34;46.24;101655.88;6169565;22;45304;-73
2021/10/27 07:34:32;;;;;;;;;15.25;12.75;;;;;21.35;46.53;101663.81;6194955;22;45191;-74
2021/10/27 07:42:19;;;;;;;;;16.25;12.75;;;;;21.28;46.27;101669.28;6195998;22;45331;-73
2021/10/27 07:44:45;;;;;;;;;15.75;13.50;;;;;21.26;46.20;101669.28;6219600;22;45397;-73
2021/10/27 07:47:11;;;;;;;;;15.25;15.25;;;;;21.24;46.33;101676.41;6195206;22;45206;-73
2021/10/27 07:49:36;;;;;;;;;15.50;13.50;;;;;21.24;46.33;101670.22;6194298;22;47271;-73
2021/10/27 07:52:05;;;;;;;;;16.75;13.75;;;;;21.22;46.11;101677.34;6169616;22;45754;-73
2021/10/27 07:54:31;;;;;;;;;15.25;14.00;;;;;21.22;45.99;101677.34;6198035;22;45396;-73
2021/10/27 07:57:02;;;;;;;;;12.75;12.75;;;;;21.22;45.98;101675.56;6194126;22;45316;-74
2021/10/27 07:59:31;;;;;;;;;15.50;14.50;;;;;21.21;46.03;101663.22;6220117;22;46589;-73
2021/10/27 08:01:57;;;;;;;;;16.50;14.00;;;;;21.23;46.25;101684.41;6220287;22;45280;-74
2021/10/27 08:04:26;;;;;;;;;14.25;11.50;;;;;21.21;45.84;101684.44;6220531;22;45418;-74
2021/10/27 08:06:51;;;;;;;;;17.25;15.00;;;;;21.21;45.95;101692.41;6218706;22;45462;-74
2021/10/27 08:09:17;;;;;;;;;15.75;13.25;;;;;21.23;45.94;101697.69;6194139;22;50388;-73
2021/10/27 08:11:43;;;;;;;;;14.00;12.25;;;;;21.21;46.13;101683.56;6193831;22;45243;-73
2021/10/27 08:14:09;;;;;;;;;17.50;15.00;;;;;21.20;45.77;101682.72;6194079;22;45218;-73
2021/10/27 08:16:35;;;;;;;;;14.25;13.25;;;;;21.14;45.83;101677.50;6219315;22;45390;-73
2021/10/27 08:19:01;;;;;;;;;16.00;14.00;;;;;21.25;45.92;101690.56;6194247;22;46526;-75
2021/10/27 08:21:26;;;;;;;;;15.25;13.50;;;;;21.19;46.00;101678.28;6194316;22;45398;-77
2021/10/27 08:23:53;;;;;;;;;19.00;16.00;;;;;21.19;46.12;101672.97;6194721;22;45460;-75
2021/10/27 08:26:22;;;;;;;;;14.00;12.75;;;;;21.26;45.76;101677.25;6194246;22;45212;-74
2021/10/27 08:29:38;;;;;;;;;15.50;13.50;;;;;21.21;46.36;101668.53;6171359;22;45452;-75
2021/10/27 08:31:40;;;;;;;;;20.75;18.50;;;;;21.31;46.76;101682.50;6193295;22;45133;-73
2021/10/27 08:34:11;;;;;;;;;23.75;19.00;;;;;21.36;46.71;101686.81;6203062;22;45189;-74
2021/10/27 08:36:36;;;;;;;;;24.25;18.00;;;;;21.36;47.02;101681.50;6223335;22;45394;-71
2021/10/27 08:39:04;;;;;;;;;20.75;18.50;;;;;21.37;46.81;101672.66;6226006;22;46092;-81
2021/10/27 08:41:35;;;;;;;;;17.25;17.00;;;;;21.36;46.67;101657.59;6221517;22;45301;-78
2021/10/27 08:44:10;;;;;;;;;20.75;18.50;;;;;21.39;46.70;101660.22;6197289;22;45411;-82
2021/10/27 08:46:35;;;;;;;;;20.25;16.25;;;;;21.56;47.19;101670.47;6197380;22;45403;-75
2021/10/27 08:49:11;;;;;;;;;17.50;15.25;;;;;21.58;47.45;101663.34;6249121;22;46403;-81
2021/10/27 08:51:37;;;;;;;;;18.75;18.75;;;;;21.72;47.61;101669.25;6197041;22;45675;-80
2021/10/27 08:54:07;;;;;;;;;20.25;17.25;;;;;21.82;47.50;101669.03;6245452;22;45500;-78
2021/10/27 08:56:34;;;;;;;;;19.50;17.50;;;;;21.89;47.03;101665.31;6171437;22;45429;-83
2021/10/27 08:59:17;;;;;;;;;18.25;17.25;;;;;21.93;47.05;101651.91;6195215;22;47263;-80
2021/10/27 09:08:09;;;;;;;;;16.25;16.25;;;;;22.14;46.52;101665.63;6203898;22;45253;-76
2021/10/27 09:38:19;;;;;;;;;;;;;;;;;;;;;
2021/10/27 09:41:37;;;;;;;;;17.75;13.25;;;;;22.22;46.61;101661.00;6198695;22;67272;-77
2021/10/27 09:44:06;;;;;;;;;19.75;14.00;;;;;22.23;46.75;101654.78;6217946;22;45356;-78
2021/10/27 10:05:04;;;;;;;;;23.25;18.25;;;;;22.29;44.96;101660.81;6204690;22;45366;-77
2021/10/27 10:07:50;;;;;;;;;23.75;21.50;;;;;22.25;44.95;101677.78;6172084;22;45434;-77
2021/10/27 10:10:18;;;;;;;;;22.00;17.75;;;;;22.10;45.17;101656.00;6220988;22;45285;-78
2021/10/27 10:12:48;;;;;;;;;19.25;19.25;;;;;22.14;45.09;101657.66;6190612;22;45639;-79
2021/10/27 10:15:20;;;;;;;;;24.50;19.50;;;;;22.18;44.87;101672.66;6190927;22;45469;-75
2021/10/27 10:17:55;;;;;;;;;21.00;17.00;;;;;22.07;45.00;101656.06;6167170;22;45436;-77
2021/10/27 10:20:29;;;;;;;;;20.50;18.25;;;;;22.10;45.04;101663.97;6191349;22;47241;-78
2021/10/27 10:22:57;;;;;;;;;25.75;18.75;;;;;22.07;44.65;101658.72;6190435;22;46018;-77
2021/10/27 10:25:27;;;;;;;;;19.75;18.25;;;;;22.01;44.73;101668.56;6166696;22;45345;-75
2021/10/27 10:27:53;;;;;;;;;23.50;18.75;;;;;21.94;45.08;101666.94;6188705;22;45189;-77
2021/10/27 10:30:56;;;;;;;;;21.75;18.75;;;;;21.89;44.73;101662.66;6190796;22;46255;-77
2021/10/27 10:33:41;;;;;;;;;21.75;17.75;;;;;21.88;44.93;101656.47;6197880;22;45180;-78
2021/10/27 10:36:15;;;;;;;;;21.00;19.50;;;;;21.97;45.43;101673.97;6191696;22;45208;-74
2021/10/27 11:22:59;;;;;;;;;16.25;15.00;;;;;22.16;45.17;101626.63;6204302;22;45430;-76
2021/10/27 11:45:06;;;;;;;;;19.25;19.25;;;;;22.27;45.00;101616.56;6157605;22;45456;-75
2021/10/27 11:47:38;;;;;;;;;18.50;17.50;;;;;22.26;45.29;101609.53;6198548;22;45363;-75
2021/10/27 11:50:09;;;;;;;;;15.50;13.25;;;;;22.21;45.35;101606.09;6221273;22;45471;-74
2021/10/27 11:52:43;;;;;;;;;20.75;17.00;;;;;22.21;45.31;101606.09;6194742;22;45741;-73
2021/10/27 11:55:10;;;;;;;;;16.50;15.50;;;;;22.23;45.20;101604.25;6195875;22;45637;-74
2021/10/27 11:57:38;;;;;;;;;14.00;12.50;;;;;22.24;45.29;101600.69;6195206;22;45632;-73
2021/10/27 12:00:22;;;;;;;;;16.50;16.50;;;;;22.24;45.09;101595.34;6173403;22;48159;-72
2021/10/27 12:02:59;;;;;;;;;17.25;14.75;;;;;22.17;44.86;101589.34;6195691;22;45280;-74
2021/10/27 12:05:31;;;;;;;;;23.00;20.75;;;;;22.19;45.44;101584.00;6198153;22;45313;-73
2021/10/27 12:18:55;;;;;;;;;16.00;13.75;;;;;;;;6192998;22;45192;-73
2021/10/27 12:21:21;;;;;;;;;2.75;2.75;;;;;22.08;45.51;101551.50;6166002;22;46779;-73
2021/10/27 12:23:53;;;;;;;;;16.00;13.00;;;;;22.08;44.98;101546.19;6165667;22;45213;-73
2021/10/27 12:26:23;;;;;;;;;16.50;15.00;;;;;22.11;45.47;101538.97;6167241;22;45294;-72
2021/10/27 12:29:14;;;;;;;;;18.50;12.50;;;;;22.14;45.76;101532.69;6142353;22;45329;-73
2021/10/27 12:31:42;;;;;;;;;15.00;13.00;;;;;22.17;45.45;101532.63;6170174;22;46178;-72
2021/10/27 12:34:46;;;;;;;;;18.50;14.25;;;;;22.20;45.26;101524.56;6140685;22;45947;-72
2021/10/27 12:37:31;;;;;;;;;17.00;12.25;;;;;22.22;45.30;101528.06;6168303;22;45403;-73
2021/10/27 12:40:17;;;;;;;;;19.75;11.25;;;;;22.22;45.46;101517.41;6166921;22;45955;-73
2021/10/27 12:42:43;;;;;;;;;12.00;10.50;;;;;22.21;45.19;101513.88;6167475;22;46805;-72
2021/10/27 12:45:08;;;;;;;;;16.25;13.75;;;;;22.20;45.25;101504.16;6140712;22;45344;-72
2021/10/27 12:47:36;;;;;;;;;15.50;12.00;;;;;22.24;45.15;101504.94;6140984;22;45257;-72
2021/10/27 12:50:14;;;;;;;;;15.25;12.50;;;;;22.24;45.69;101502.28;6167094;22;45266;-72
2021/10/27 12:53:00;;;;;;;;;17.50;12.75;;;;;22.25;45.36;101504.06;6168205;22;45586;-72
2021/10/27 12:55:30;;;;;;;;;13.25;12.00;;;;;22.23;45.59;101501.41;6164818;22;45237;-72
2021/10/27 12:58:00;;;;;;;;;17.75;12.00;;;;;22.24;45.22;101499.63;6165446;22;45413;-73
2021/10/27 13:03:56;;;;;;;;;12.50;10.25;;;;;22.21;45.30;101491.75;6191947;22;46051;-72
2021/10/27 13:16:45;;;;;;;;;14.00;12.25;;;;;22.18;45.61;101474.09;6170697;22;45548;-72
2021/10/27 13:32:17;;;;;;;;;16.25;12.75;;;;;22.20;45.80;101456.31;6169330;22;45193;-73
2021/10/27 13:34:42;;;;;;;;;17.50;13.00;;;;;22.20;46.33;101447.47;6142661;22;47436;-73
2021/10/27 13:37:08;;;;;;;;;13.00;12.00;;;;;22.22;46.47;101437.66;6140573;22;45806;-73
2021/10/27 13:39:35;;;;;;;;;17.00;11.00;;;;;22.23;46.55;101440.25;6165661;22;45319;-72
2021/10/27 13:42:12;;;;;;;;;15.50;11.00;;;;;22.26;46.11;101436.66;6140847;22;45423;-72
2021/10/27 13:44:55;;;;;;;;;14.25;12.00;;;;;22.28;46.18;101432.16;6166987;22;47487;-72
2021/10/27 14:09:06;;;;;;;;;13.00;11.00;;;;;22.31;46.21;101412.59;6192343;22;45189;-73
2021/10/27 14:11:38;;;;;;;;;10.25;9.25;;;;;22.31;46.37;101410.78;6168163;22;45329;-72
2021/10/27 15:19:48;;;;;;;;;8.00;7.00;;;;;22.24;46.33;101364.91;6032028;23;45338;-75
2021/10/27 15:51:58;;;;;;;;;6.00;6.00;;;;;22.19;45.82;101342.03;6172328;22;45672;-75
2021/10/27 15:54:23;;;;;;;;;9.00;6.75;;;;;22.17;45.91;101334.09;6167804;22;46170;-75
2021/10/27 15:56:49;;;;;;;;;9.25;7.00;;;;;22.20;46.03;101338.44;6138747;22;57895;-75
2021/10/27 15:59:25;;;;;;;;;9.75;8.25;;;;;22.20;45.84;101338.44;6140200;22;45348;-75
2021/10/27 16:01:52;;;;;;;;;6.50;6.50;;;;;22.17;45.38;101333.22;6166222;22;45236;-74
2021/10/27 16:04:17;;;;;;;;;12.75;8.75;;;;;22.20;45.42;101347.28;6140057;22;47406;-75
2021/10/27 16:06:54;;;;;;;;;9.50;8.25;;;;;22.19;45.68;101339.38;6216972;22;45116;-74
2021/10/27 16:09:20;;;;;;;;;9.75;7.75;;;;;22.19;45.62;101345.56;6169525;22;45268;-76
2021/10/27 16:11:46;;;;;;;;;6.50;6.50;;;;;22.21;45.53;101340.19;6138662;22;45544;-76
2021/10/27 16:14:13;;;;;;;;;11.00;9.00;;;;;22.20;45.51;101334.00;6139351;22;47334;-76
2021/10/27 16:16:38;;;;;;;;;9.50;9.00;;;;;22.17;45.78;101336.75;6164494;22;45388;-74
2021/10/27 16:19:03;;;;;;;;;10.50;7.25;;;;;22.18;45.74;101340.28;6164451;22;45266;-74
2021/10/27 16:21:29;;;;;;;;;8.75;7.50;;;;;22.18;45.76;101337.63;6139141;22;45282;-74
2021/10/27 16:23:56;;;;;;;;;10.00;9.00;;;;;22.13;45.39;101327.13;6164039;22;46887;-76
2021/10/27 16:26:21;;;;;;;;;8.75;8.75;;;;;22.15;45.30;101330.63;6164744;22;45357;-76